sensor_id;sensor_type;location;lat;lon;timestamp;temperature;humidity
1361;DHT22;674;45.552;-122.600;2023-06-14T00:00:06;23.50;1.00
1361;DHT22;674;45.552;-122.600;2023-06-14T00:02:35;23.60;1.00
1361;DHT22;674;45.552;-122.600;2023-06-14T00:05:07;23.70;1.00
1361;DHT22;674;45.552;-122.600;2023-06-14T00:07:37;23.90;1.00
1361;DHT22;674;45.552;-122.600;2023-06-14T00:10:11;23.90;1.00
1361;DHT22;674;45.552;-122.600;2023-06-14T00:12:41;24.10;1.00
1361;DHT22;674;45.552;-122.600;2023-06-14T00:15:09;24.20;1.00
1361;DHT22;674;45.552;-122.600;2023-06-14T00:17:38;24.40;1.00
1361;DHT22;674;45.552;-122.600;2023-06-14T00:20:07;24.50;1.00
1361;DHT22;674;45.552;-122.600;2023-06-14T00:22:36;24.40;1.00
1361;DHT22;674;45.552;-122.600;2023-06-14T00:25:05;24.20;1.00
1361;DHT22;674;45.552;-122.600;2023-06-14T00:27:55;24.20;1.00
1361;DHT22;674;45.552;-122.600;2023-06-14T00:30:24;23.90;1.00
1361;DHT22;674;45.552;-122.600;2023-06-14T00:32:53;23.50;1.00
1361;DHT22;674;45.552;-122.600;2023-06-14T00:35:21;23.50;1.00
1361;DHT22;674;45.552;-122.600;2023-06-14T00:37:50;23.30;1.00
1361;DHT22;674;45.552;-122.600;2023-06-14T00:40:18;23.00;1.00
1361;DHT22;674;45.552;-122.600;2023-06-14T00:42:47;22.90;1.00
1361;DHT22;674;45.552;-122.600;2023-06-14T00:45:16;22.70;1.00
1361;DHT22;674;45.552;-122.600;2023-06-14T00:47:46;22.80;1.00
1361;DHT22;674;45.552;-122.600;2023-06-14T00:50:16;22.70;1.00
1361;DHT22;674;45.552;-122.600;2023-06-14T00:52:45;22.40;1.00
1361;DHT22;674;45.552;-122.600;2023-06-14T00:55:13;22.40;1.00
1361;DHT22;674;45.552;-122.600;2023-06-14T00:57:42;22.40;1.00
1361;DHT22;674;45.552;-122.600;2023-06-14T01:00:11;22.50;1.00
1361;DHT22;674;45.552;-122.600;2023-06-14T01:02:40;22.50;1.00
1361;DHT22;674;45.552;-122.600;2023-06-14T01:05:09;22.50;1.00
1361;DHT22;674;45.552;-122.600;2023-06-14T01:10:41;22.40;1.00
1361;DHT22;674;45.552;-122.600;2023-06-14T01:13:26;22.40;1.00
1361;DHT22;674;45.552;-122.600;2023-06-14T01:15:56;22.30;1.00
1361;DHT22;674;45.552;-122.600;2023-06-14T01:18:26;22.20;1.00
1361;DHT22;674;45.552;-122.600;2023-06-14T01:20:57;21.90;1.00
1361;DHT22;674;45.552;-122.600;2023-06-14T01:23:26;21.90;1.00
1361;DHT22;674;45.552;-122.600;2023-06-14T01:26:01;22.00;1.00
1361;DHT22;674;45.552;-122.600;2023-06-14T01:28:31;21.90;1.00
1361;DHT22;674;45.552;-122.600;2023-06-14T01:31:02;21.80;1.00
1361;DHT22;674;45.552;-122.600;2023-06-14T01:33:33;21.70;1.00
1361;DHT22;674;45.552;-122.600;2023-06-14T01:36:05;21.70;1.00
1361;DHT22;674;45.552;-122.600;2023-06-14T01:38:36;21.60;1.00
1361;DHT22;674;45.552;-122.600;2023-06-14T01:41:06;21.50;1.00
1361;DHT22;674;45.552;-122.600;2023-06-14T01:43:35;21.40;1.00
1361;DHT22;674;45.552;-122.600;2023-06-14T01:46:04;21.40;1.00
1361;DHT22;674;45.552;-122.600;2023-06-14T01:48:34;21.30;1.00
1361;DHT22;674;45.552;-122.600;2023-06-14T01:51:03;21.10;1.00
1361;DHT22;674;45.552;-122.600;2023-06-14T01:53:31;21.00;1.00
1361;DHT22;674;45.552;-122.600;2023-06-14T01:56:00;21.10;1.00
1361;DHT22;674;45.552;-122.600;2023-06-14T01:58:29;21.00;1.00
1361;DHT22;674;45.552;-122.600;2023-06-14T02:00:57;21.00;1.00
1361;DHT22;674;45.552;-122.600;2023-06-14T02:03:28;20.90;1.00
1361;DHT22;674;45.552;-122.600;2023-06-14T02:05:58;20.90;1.00
1361;DHT22;674;45.552;-122.600;2023-06-14T02:08:27;20.90;1.00
1361;DHT22;674;45.552;-122.600;2023-06-14T02:10:55;20.90;1.00
1361;DHT22;674;45.552;-122.600;2023-06-14T02:13:24;20.80;1.00
1361;DHT22;674;45.552;-122.600;2023-06-14T02:15:52;20.80;1.00
1361;DHT22;674;45.552;-122.600;2023-06-14T02:18:23;20.80;1.00
1361;DHT22;674;45.552;-122.600;2023-06-14T02:20:51;20.60;1.00
1361;DHT22;674;45.552;-122.600;2023-06-14T02:23:20;20.60;1.00
1361;DHT22;674;45.552;-122.600;2023-06-14T02:25:48;20.60;1.00
1361;DHT22;674;45.552;-122.600;2023-06-14T02:28:17;20.40;1.00
1361;DHT22;674;45.552;-122.600;2023-06-14T02:30:46;20.30;1.00
1361;DHT22;674;45.552;-122.600;2023-06-14T02:33:14;20.20;1.00
1361;DHT22;674;45.552;-122.600;2023-06-14T02:35:43;20.00;1.00
1361;DHT22;674;45.552;-122.600;2023-06-14T02:38:12;19.90;1.00
1361;DHT22;674;45.552;-122.600;2023-06-14T02:40:40;19.90;1.00
1361;DHT22;674;45.552;-122.600;2023-06-14T02:43:10;19.80;1.00
1361;DHT22;674;45.552;-122.600;2023-06-14T02:45:38;19.80;1.00
1361;DHT22;674;45.552;-122.600;2023-06-14T02:48:08;19.60;1.00
1361;DHT22;674;45.552;-122.600;2023-06-14T02:50:37;19.50;1.00
1361;DHT22;674;45.552;-122.600;2023-06-14T02:53:05;19.40;1.00
1361;DHT22;674;45.552;-122.600;2023-06-14T02:55:34;19.50;1.00
1361;DHT22;674;45.552;-122.600;2023-06-14T02:58:07;19.40;1.00
1361;DHT22;674;45.552;-122.600;2023-06-14T03:00:36;19.30;1.00
1361;DHT22;674;45.552;-122.600;2023-06-14T03:03:06;19.20;1.00
1361;DHT22;674;45.552;-122.600;2023-06-14T03:05:45;19.10;1.00
1361;DHT22;674;45.552;-122.600;2023-06-14T03:08:16;18.90;1.00
1361;DHT22;674;45.552;-122.600;2023-06-14T03:10:48;18.90;1.00
1361;DHT22;674;45.552;-122.600;2023-06-14T03:13:17;18.80;1.00
1361;DHT22;674;45.552;-122.600;2023-06-14T03:15:49;18.70;1.00
1361;DHT22;674;45.552;-122.600;2023-06-14T03:18:20;18.60;1.00
1361;DHT22;674;45.552;-122.600;2023-06-14T03:20:54;18.50;1.00
1361;DHT22;674;45.552;-122.600;2023-06-14T03:23:25;18.50;1.00
1361;DHT22;674;45.552;-122.600;2023-06-14T03:25:53;18.30;1.00
1361;DHT22;674;45.552;-122.600;2023-06-14T03:28:22;18.20;1.00
1361;DHT22;674;45.552;-122.600;2023-06-14T03:30:50;18.10;1.00
1361;DHT22;674;45.552;-122.600;2023-06-14T03:33:24;18.00;1.00
1361;DHT22;674;45.552;-122.600;2023-06-14T03:35:53;17.80;1.00
1361;DHT22;674;45.552;-122.600;2023-06-14T03:38:22;17.80;1.00
1361;DHT22;674;45.552;-122.600;2023-06-14T03:40:51;17.60;1.00
1361;DHT22;674;45.552;-122.600;2023-06-14T03:43:19;17.60;1.00
1361;DHT22;674;45.552;-122.600;2023-06-14T03:45:48;17.50;1.00
1361;DHT22;674;45.552;-122.600;2023-06-14T03:48:16;17.50;1.00
1361;DHT22;674;45.552;-122.600;2023-06-14T03:50:45;17.40;1.00
1361;DHT22;674;45.552;-122.600;2023-06-14T03:53:14;17.30;1.00
1361;DHT22;674;45.552;-122.600;2023-06-14T03:55:42;17.20;1.00
1361;DHT22;674;45.552;-122.600;2023-06-14T03:58:14;17.20;1.00
1361;DHT22;674;45.552;-122.600;2023-06-14T04:00:43;17.20;1.00
1361;DHT22;674;45.552;-122.600;2023-06-14T04:03:11;17.00;1.00
1361;DHT22;674;45.552;-122.600;2023-06-14T04:05:41;17.00;1.00
1361;DHT22;674;45.552;-122.600;2023-06-14T04:08:10;16.80;1.00
1361;DHT22;674;45.552;-122.600;2023-06-14T04:10:42;16.70;1.00
1361;DHT22;674;45.552;-122.600;2023-06-14T04:13:10;16.70;1.00
1361;DHT22;674;45.552;-122.600;2023-06-14T04:15:41;16.70;1.00
1361;DHT22;674;45.552;-122.600;2023-06-14T04:18:13;16.60;1.00
1361;DHT22;674;45.552;-122.600;2023-06-14T04:20:42;16.60;1.00
1361;DHT22;674;45.552;-122.600;2023-06-14T04:23:13;16.50;1.00
1361;DHT22;674;45.552;-122.600;2023-06-14T04:25:42;16.40;1.00
1361;DHT22;674;45.552;-122.600;2023-06-14T04:28:13;16.30;1.00
1361;DHT22;674;45.552;-122.600;2023-06-14T04:30:46;16.20;1.00
1361;DHT22;674;45.552;-122.600;2023-06-14T04:33:16;16.20;1.00
1361;DHT22;674;45.552;-122.600;2023-06-14T04:35:45;16.10;1.00
1361;DHT22;674;45.552;-122.600;2023-06-14T04:38:15;16.00;1.00
1361;DHT22;674;45.552;-122.600;2023-06-14T04:40:44;15.90;1.00
1361;DHT22;674;45.552;-122.600;2023-06-14T04:43:14;15.80;1.00
1361;DHT22;674;45.552;-122.600;2023-06-14T04:45:45;15.80;1.00
1361;DHT22;674;45.552;-122.600;2023-06-14T04:48:14;15.60;1.00
1361;DHT22;674;45.552;-122.600;2023-06-14T04:50:43;15.60;1.00
1361;DHT22;674;45.552;-122.600;2023-06-14T04:53:11;15.50;1.00
1361;DHT22;674;45.552;-122.600;2023-06-14T04:55:40;15.50;1.00
1361;DHT22;674;45.552;-122.600;2023-06-14T04:58:12;15.50;1.00
1361;DHT22;674;45.552;-122.600;2023-06-14T05:00:41;15.40;1.00
1361;DHT22;674;45.552;-122.600;2023-06-14T05:03:11;15.40;1.00
1361;DHT22;674;45.552;-122.600;2023-06-14T05:05:41;15.20;1.00
1361;DHT22;674;45.552;-122.600;2023-06-14T05:08:10;15.20;1.00
1361;DHT22;674;45.552;-122.600;2023-06-14T05:10:38;15.20;1.00
1361;DHT22;674;45.552;-122.600;2023-06-14T05:13:07;15.10;1.00
1361;DHT22;674;45.552;-122.600;2023-06-14T05:15:35;15.10;1.00
1361;DHT22;674;45.552;-122.600;2023-06-14T05:18:04;15.00;1.00
1361;DHT22;674;45.552;-122.600;2023-06-14T05:20:33;14.90;1.00
1361;DHT22;674;45.552;-122.600;2023-06-14T05:23:03;14.90;1.00
1361;DHT22;674;45.552;-122.600;2023-06-14T05:25:31;14.90;1.00
1361;DHT22;674;45.552;-122.600;2023-06-14T05:28:00;14.90;1.00
1361;DHT22;674;45.552;-122.600;2023-06-14T05:30:28;14.90;1.00
1361;DHT22;674;45.552;-122.600;2023-06-14T05:32:58;14.90;1.00
1361;DHT22;674;45.552;-122.600;2023-06-14T05:35:27;14.80;1.00
1361;DHT22;674;45.552;-122.600;2023-06-14T05:37:56;14.70;1.00
1361;DHT22;674;45.552;-122.600;2023-06-14T05:40:24;14.80;1.00
1361;DHT22;674;45.552;-122.600;2023-06-14T05:42:53;14.80;1.00
1361;DHT22;674;45.552;-122.600;2023-06-14T05:45:21;14.60;1.00
1361;DHT22;674;45.552;-122.600;2023-06-14T05:47:50;14.60;1.00
1361;DHT22;674;45.552;-122.600;2023-06-14T05:50:19;14.60;1.00
1361;DHT22;674;45.552;-122.600;2023-06-14T05:52:47;14.50;1.00
1361;DHT22;674;45.552;-122.600;2023-06-14T05:55:19;14.60;1.00
1361;DHT22;674;45.552;-122.600;2023-06-14T05:57:48;14.50;1.00
1361;DHT22;674;45.552;-122.600;2023-06-14T06:00:16;14.60;1.00
1361;DHT22;674;45.552;-122.600;2023-06-14T06:02:46;14.50;1.00
1361;DHT22;674;45.552;-122.600;2023-06-14T06:05:15;14.50;1.00
1361;DHT22;674;45.552;-122.600;2023-06-14T06:07:45;14.50;1.00
1361;DHT22;674;45.552;-122.600;2023-06-14T06:10:14;14.50;1.00
1361;DHT22;674;45.552;-122.600;2023-06-14T06:12:42;14.50;1.00
1361;DHT22;674;45.552;-122.600;2023-06-14T06:15:11;14.40;1.00
1361;DHT22;674;45.552;-122.600;2023-06-14T06:17:40;14.40;1.00
1361;DHT22;674;45.552;-122.600;2023-06-14T06:20:23;14.40;1.00
1361;DHT22;674;45.552;-122.600;2023-06-14T06:22:57;14.40;1.00
1361;DHT22;674;45.552;-122.600;2023-06-14T06:25:27;14.30;1.00
1361;DHT22;674;45.552;-122.600;2023-06-14T06:27:56;14.40;1.00
1361;DHT22;674;45.552;-122.600;2023-06-14T06:30:24;14.30;1.00
1361;DHT22;674;45.552;-122.600;2023-06-14T06:32:53;14.30;1.00
1361;DHT22;674;45.552;-122.600;2023-06-14T06:35:23;14.30;1.00
1361;DHT22;674;45.552;-122.600;2023-06-14T06:37:52;14.30;1.00
1361;DHT22;674;45.552;-122.600;2023-06-14T06:40:21;14.20;1.00
1361;DHT22;674;45.552;-122.600;2023-06-14T06:42:49;14.20;1.00
1361;DHT22;674;45.552;-122.600;2023-06-14T06:45:18;14.10;1.00
1361;DHT22;674;45.552;-122.600;2023-06-14T06:47:48;14.10;1.00
1361;DHT22;674;45.552;-122.600;2023-06-14T06:50:18;14.10;1.00
1361;DHT22;674;45.552;-122.600;2023-06-14T06:52:47;14.20;1.00
1361;DHT22;674;45.552;-122.600;2023-06-14T06:55:16;14.20;1.00
1361;DHT22;674;45.552;-122.600;2023-06-14T06:57:46;14.20;1.00
1361;DHT22;674;45.552;-122.600;2023-06-14T07:00:15;14.20;1.00
1361;DHT22;674;45.552;-122.600;2023-06-14T07:02:45;14.30;1.00
1361;DHT22;674;45.552;-122.600;2023-06-14T07:05:13;14.30;1.00
1361;DHT22;674;45.552;-122.600;2023-06-14T07:07:42;14.20;1.00
1361;DHT22;674;45.552;-122.600;2023-06-14T07:10:11;14.30;1.00
1361;DHT22;674;45.552;-122.600;2023-06-14T07:12:39;14.30;1.00
1361;DHT22;674;45.552;-122.600;2023-06-14T07:15:09;14.40;1.00
1361;DHT22;674;45.552;-122.600;2023-06-14T07:17:38;14.50;1.00
1361;DHT22;674;45.552;-122.600;2023-06-14T07:20:07;14.50;1.00
1361;DHT22;674;45.552;-122.600;2023-06-14T07:22:37;14.60;1.00
1361;DHT22;674;45.552;-122.600;2023-06-14T07:25:08;14.60;1.00
1361;DHT22;674;45.552;-122.600;2023-06-14T07:27:37;14.60;1.00
1361;DHT22;674;45.552;-122.600;2023-06-14T07:30:06;14.60;1.00
1361;DHT22;674;45.552;-122.600;2023-06-14T07:32:35;14.60;1.00
1361;DHT22;674;45.552;-122.600;2023-06-14T07:35:04;14.70;1.00
1361;DHT22;674;45.552;-122.600;2023-06-14T07:37:33;14.70;1.00
1361;DHT22;674;45.552;-122.600;2023-06-14T07:40:02;14.60;1.00
1361;DHT22;674;45.552;-122.600;2023-06-14T07:42:35;14.60;1.00
1361;DHT22;674;45.552;-122.600;2023-06-14T07:45:04;14.70;1.00
1361;DHT22;674;45.552;-122.600;2023-06-14T07:47:34;14.70;1.00
1361;DHT22;674;45.552;-122.600;2023-06-14T07:50:03;14.70;1.00
1361;DHT22;674;45.552;-122.600;2023-06-14T07:52:31;14.70;1.00
1361;DHT22;674;45.552;-122.600;2023-06-14T07:55:00;14.70;1.00
1361;DHT22;674;45.552;-122.600;2023-06-14T07:57:28;14.70;1.00
1361;DHT22;674;45.552;-122.600;2023-06-14T07:59:57;14.60;1.00
1361;DHT22;674;45.552;-122.600;2023-06-14T08:02:25;14.70;1.00
1361;DHT22;674;45.552;-122.600;2023-06-14T08:04:54;14.70;1.00
1361;DHT22;674;45.552;-122.600;2023-06-14T08:07:22;14.70;1.00
1361;DHT22;674;45.552;-122.600;2023-06-14T08:09:51;14.70;1.00
1361;DHT22;674;45.552;-122.600;2023-06-14T08:12:19;14.60;1.00
1361;DHT22;674;45.552;-122.600;2023-06-14T08:14:48;14.70;1.00
1361;DHT22;674;45.552;-122.600;2023-06-14T08:17:27;14.70;1.00
1361;DHT22;674;45.552;-122.600;2023-06-14T08:19:56;14.70;1.00
1361;DHT22;674;45.552;-122.600;2023-06-14T08:22:25;14.70;1.00
1361;DHT22;674;45.552;-122.600;2023-06-14T08:24:55;14.70;1.00
1361;DHT22;674;45.552;-122.600;2023-06-14T08:27:24;14.70;1.00
1361;DHT22;674;45.552;-122.600;2023-06-14T08:29:56;14.70;1.00
1361;DHT22;674;45.552;-122.600;2023-06-14T08:32:24;14.80;1.00
1361;DHT22;674;45.552;-122.600;2023-06-14T08:34:53;14.80;1.00
1361;DHT22;674;45.552;-122.600;2023-06-14T08:37:32;14.80;1.00
1361;DHT22;674;45.552;-122.600;2023-06-14T08:40:01;14.80;1.00
1361;DHT22;674;45.552;-122.600;2023-06-14T08:42:33;14.80;1.00
1361;DHT22;674;45.552;-122.600;2023-06-14T08:45:03;14.80;1.00
1361;DHT22;674;45.552;-122.600;2023-06-14T08:47:32;14.70;1.00
1361;DHT22;674;45.552;-122.600;2023-06-14T08:50:08;14.70;1.00
1361;DHT22;674;45.552;-122.600;2023-06-14T08:52:56;14.70;1.00
1361;DHT22;674;45.552;-122.600;2023-06-14T08:55:29;14.60;1.00
1361;DHT22;674;45.552;-122.600;2023-06-14T08:58:02;14.60;1.00
1361;DHT22;674;45.552;-122.600;2023-06-14T09:00:31;14.60;1.00
1361;DHT22;674;45.552;-122.600;2023-06-14T09:03:01;14.60;1.00
1361;DHT22;674;45.552;-122.600;2023-06-14T09:05:31;14.60;1.00
1361;DHT22;674;45.552;-122.600;2023-06-14T09:07:59;14.60;1.00
1361;DHT22;674;45.552;-122.600;2023-06-14T09:10:33;14.60;1.00
1361;DHT22;674;45.552;-122.600;2023-06-14T09:13:06;14.60;1.00
1361;DHT22;674;45.552;-122.600;2023-06-14T09:15:35;14.60;1.00
1361;DHT22;674;45.552;-122.600;2023-06-14T09:18:04;14.60;1.00
1361;DHT22;674;45.552;-122.600;2023-06-14T09:20:34;14.50;1.00
1361;DHT22;674;45.552;-122.600;2023-06-14T09:23:03;14.50;1.00
1361;DHT22;674;45.552;-122.600;2023-06-14T09:25:42;14.50;1.00
1361;DHT22;674;45.552;-122.600;2023-06-14T09:28:12;14.50;1.00
1361;DHT22;674;45.552;-122.600;2023-06-14T09:30:41;14.60;1.00
1361;DHT22;674;45.552;-122.600;2023-06-14T09:33:10;14.60;1.00
1361;DHT22;674;45.552;-122.600;2023-06-14T09:35:38;14.60;1.00
1361;DHT22;674;45.552;-122.600;2023-06-14T09:38:07;14.60;1.00
1361;DHT22;674;45.552;-122.600;2023-06-14T09:40:35;14.60;1.00
1361;DHT22;674;45.552;-122.600;2023-06-14T09:43:06;14.60;1.00
1361;DHT22;674;45.552;-122.600;2023-06-14T09:45:41;14.50;1.00
1361;DHT22;674;45.552;-122.600;2023-06-14T09:48:13;14.50;1.00
1361;DHT22;674;45.552;-122.600;2023-06-14T09:50:46;14.50;1.00
1361;DHT22;674;45.552;-122.600;2023-06-14T09:53:21;14.50;1.00
1361;DHT22;674;45.552;-122.600;2023-06-14T09:55:55;14.50;1.00
1361;DHT22;674;45.552;-122.600;2023-06-14T09:58:26;14.40;1.00
1361;DHT22;674;45.552;-122.600;2023-06-14T10:00:57;14.40;1.00
1361;DHT22;674;45.552;-122.600;2023-06-14T10:03:28;14.30;1.00
1361;DHT22;674;45.552;-122.600;2023-06-14T10:06:17;14.30;1.00
1361;DHT22;674;45.552;-122.600;2023-06-14T10:08:46;14.30;1.00
1361;DHT22;674;45.552;-122.600;2023-06-14T10:11:16;14.30;1.00
1361;DHT22;674;45.552;-122.600;2023-06-14T10:13:45;14.30;1.00
1361;DHT22;674;45.552;-122.600;2023-06-14T10:16:24;14.20;1.00
1361;DHT22;674;45.552;-122.600;2023-06-14T10:19:07;14.20;1.00
1361;DHT22;674;45.552;-122.600;2023-06-14T10:21:59;14.10;1.00
1361;DHT22;674;45.552;-122.600;2023-06-14T10:24:43;14.10;1.00
1361;DHT22;674;45.552;-122.600;2023-06-14T10:27:15;14.10;1.00
1361;DHT22;674;45.552;-122.600;2023-06-14T10:32:26;14.10;1.00
1361;DHT22;674;45.552;-122.600;2023-06-14T10:37:27;14.10;1.00
1361;DHT22;674;45.552;-122.600;2023-06-14T10:39:55;14.10;1.00
1361;DHT22;674;45.552;-122.600;2023-06-14T10:42:31;14.10;1.00
1361;DHT22;674;45.552;-122.600;2023-06-14T10:45:01;14.00;1.00
1361;DHT22;674;45.552;-122.600;2023-06-14T10:47:33;14.00;1.00
1361;DHT22;674;45.552;-122.600;2023-06-14T10:50:06;14.00;1.00
1361;DHT22;674;45.552;-122.600;2023-06-14T10:52:39;14.00;1.00
1361;DHT22;674;45.552;-122.600;2023-06-14T10:55:13;14.00;1.00
1361;DHT22;674;45.552;-122.600;2023-06-14T10:57:54;14.00;1.00
1361;DHT22;674;45.552;-122.600;2023-06-14T11:00:28;14.00;1.00
1361;DHT22;674;45.552;-122.600;2023-06-14T11:05:55;14.00;1.00
1361;DHT22;674;45.552;-122.600;2023-06-14T11:09:07;14.10;1.00
1361;DHT22;674;45.552;-122.600;2023-06-14T11:11:42;14.10;1.00
1361;DHT22;674;45.552;-122.600;2023-06-14T11:14:11;14.10;1.00
1361;DHT22;674;45.552;-122.600;2023-06-14T11:16:40;14.10;1.00
1361;DHT22;674;45.552;-122.600;2023-06-14T11:19:08;14.10;1.00
1361;DHT22;674;45.552;-122.600;2023-06-14T11:21:40;14.00;1.00
1361;DHT22;674;45.552;-122.600;2023-06-14T11:24:12;14.10;1.00
1361;DHT22;674;45.552;-122.600;2023-06-14T11:26:41;14.10;1.00
1361;DHT22;674;45.552;-122.600;2023-06-14T11:29:09;14.10;1.00
1361;DHT22;674;45.552;-122.600;2023-06-14T11:31:38;14.10;1.00
1361;DHT22;674;45.552;-122.600;2023-06-14T11:34:12;14.20;1.00
1361;DHT22;674;45.552;-122.600;2023-06-14T11:36:41;14.10;1.00
1361;DHT22;674;45.552;-122.600;2023-06-14T11:39:10;14.20;1.00
1361;DHT22;674;45.552;-122.600;2023-06-14T11:41:42;14.20;1.00
1361;DHT22;674;45.552;-122.600;2023-06-14T11:44:12;14.20;1.00
1361;DHT22;674;45.552;-122.600;2023-06-14T11:46:41;14.30;1.00
1361;DHT22;674;45.552;-122.600;2023-06-14T11:49:09;14.20;1.00
1361;DHT22;674;45.552;-122.600;2023-06-14T11:51:38;14.30;1.00
1361;DHT22;674;45.552;-122.600;2023-06-14T11:54:07;14.20;1.00
1361;DHT22;674;45.552;-122.600;2023-06-14T11:56:37;14.20;1.00
1361;DHT22;674;45.552;-122.600;2023-06-14T11:59:06;14.20;1.00
1361;DHT22;674;45.552;-122.600;2023-06-14T12:01:36;14.20;1.00
1361;DHT22;674;45.552;-122.600;2023-06-14T12:04:08;14.20;1.00
1361;DHT22;674;45.552;-122.600;2023-06-14T12:06:37;14.20;1.00
1361;DHT22;674;45.552;-122.600;2023-06-14T12:09:07;14.20;1.00
1361;DHT22;674;45.552;-122.600;2023-06-14T12:11:41;14.10;1.00
1361;DHT22;674;45.552;-122.600;2023-06-14T12:14:10;14.10;1.00
1361;DHT22;674;45.552;-122.600;2023-06-14T12:16:39;14.10;1.00
1361;DHT22;674;45.552;-122.600;2023-06-14T12:19:15;14.10;1.00
1361;DHT22;674;45.552;-122.600;2023-06-14T12:21:48;14.20;1.00
1361;DHT22;674;45.552;-122.600;2023-06-14T12:24:20;14.20;1.00
1361;DHT22;674;45.552;-122.600;2023-06-14T12:26:48;14.20;1.00
1361;DHT22;674;45.552;-122.600;2023-06-14T12:29:20;14.20;1.00
1361;DHT22;674;45.552;-122.600;2023-06-14T12:31:49;14.10;1.00
1361;DHT22;674;45.552;-122.600;2023-06-14T12:34:17;14.20;1.00
1361;DHT22;674;45.552;-122.600;2023-06-14T12:36:46;14.20;1.00
1361;DHT22;674;45.552;-122.600;2023-06-14T12:39:15;14.20;1.00
1361;DHT22;674;45.552;-122.600;2023-06-14T12:41:43;14.20;1.00
1361;DHT22;674;45.552;-122.600;2023-06-14T12:44:12;14.20;1.00
1361;DHT22;674;45.552;-122.600;2023-06-14T12:46:44;14.20;1.00
1361;DHT22;674;45.552;-122.600;2023-06-14T12:49:13;14.20;1.00
1361;DHT22;674;45.552;-122.600;2023-06-14T12:51:41;14.30;1.00
1361;DHT22;674;45.552;-122.600;2023-06-14T12:54:10;14.30;1.00
1361;DHT22;674;45.552;-122.600;2023-06-14T12:56:38;14.30;1.00
1361;DHT22;674;45.552;-122.600;2023-06-14T12:59:07;14.30;1.00
1361;DHT22;674;45.552;-122.600;2023-06-14T13:01:38;14.30;1.00
1361;DHT22;674;45.552;-122.600;2023-06-14T13:04:08;14.40;1.00
1361;DHT22;674;45.552;-122.600;2023-06-14T13:06:36;14.40;1.00
1361;DHT22;674;45.552;-122.600;2023-06-14T13:09:05;14.40;1.00
1361;DHT22;674;45.552;-122.600;2023-06-14T13:11:34;14.40;1.00
1361;DHT22;674;45.552;-122.600;2023-06-14T13:14:02;14.40;1.00
1361;DHT22;674;45.552;-122.600;2023-06-14T13:16:50;14.40;1.00
1361;DHT22;674;45.552;-122.600;2023-06-14T13:19:19;14.50;1.00
1361;DHT22;674;45.552;-122.600;2023-06-14T13:21:48;14.50;1.00
1361;DHT22;674;45.552;-122.600;2023-06-14T13:24:17;14.50;1.00
1361;DHT22;674;45.552;-122.600;2023-06-14T13:26:45;14.60;1.00
1361;DHT22;674;45.552;-122.600;2023-06-14T13:29:14;14.60;1.00
1361;DHT22;674;45.552;-122.600;2023-06-14T13:31:42;14.60;1.00
1361;DHT22;674;45.552;-122.600;2023-06-14T13:34:11;14.60;1.00
1361;DHT22;674;45.552;-122.600;2023-06-14T13:36:39;14.70;1.00
1361;DHT22;674;45.552;-122.600;2023-06-14T13:39:08;14.70;1.00
1361;DHT22;674;45.552;-122.600;2023-06-14T13:41:37;14.70;1.00
1361;DHT22;674;45.552;-122.600;2023-06-14T13:44:05;14.80;1.00
1361;DHT22;674;45.552;-122.600;2023-06-14T13:46:34;14.80;1.00
1361;DHT22;674;45.552;-122.600;2023-06-14T13:49:03;14.80;1.00
1361;DHT22;674;45.552;-122.600;2023-06-14T13:51:33;14.80;1.00
1361;DHT22;674;45.552;-122.600;2023-06-14T13:54:03;14.80;1.00
1361;DHT22;674;45.552;-122.600;2023-06-14T13:56:31;14.80;1.00
1361;DHT22;674;45.552;-122.600;2023-06-14T13:59:00;14.80;1.00
1361;DHT22;674;45.552;-122.600;2023-06-14T14:01:28;14.90;1.00
1361;DHT22;674;45.552;-122.600;2023-06-14T14:03:57;14.90;1.00
1361;DHT22;674;45.552;-122.600;2023-06-14T14:06:27;14.90;1.00
1361;DHT22;674;45.552;-122.600;2023-06-14T14:08:55;14.90;1.00
1361;DHT22;674;45.552;-122.600;2023-06-14T14:11:24;14.90;1.00
1361;DHT22;674;45.552;-122.600;2023-06-14T14:13:53;14.90;1.00
1361;DHT22;674;45.552;-122.600;2023-06-14T14:16:21;15.00;1.00
1361;DHT22;674;45.552;-122.600;2023-06-14T14:18:51;15.00;1.00
1361;DHT22;674;45.552;-122.600;2023-06-14T14:21:19;15.00;1.00
1361;DHT22;674;45.552;-122.600;2023-06-14T14:23:48;15.10;1.00
1361;DHT22;674;45.552;-122.600;2023-06-14T14:26:17;15.10;1.00
1361;DHT22;674;45.552;-122.600;2023-06-14T14:28:46;15.20;1.00
1361;DHT22;674;45.552;-122.600;2023-06-14T14:31:14;15.20;1.00
1361;DHT22;674;45.552;-122.600;2023-06-14T14:33:43;15.20;1.00
1361;DHT22;674;45.552;-122.600;2023-06-14T14:36:11;15.20;1.00
1361;DHT22;674;45.552;-122.600;2023-06-14T14:38:41;15.20;1.00
1361;DHT22;674;45.552;-122.600;2023-06-14T14:41:10;15.30;1.00
1361;DHT22;674;45.552;-122.600;2023-06-14T14:43:39;15.20;1.00
1361;DHT22;674;45.552;-122.600;2023-06-14T14:46:07;15.30;1.00
1361;DHT22;674;45.552;-122.600;2023-06-14T14:48:36;15.30;1.00
1361;DHT22;674;45.552;-122.600;2023-06-14T14:51:04;15.30;1.00
1361;DHT22;674;45.552;-122.600;2023-06-14T14:53:33;15.30;1.00
1361;DHT22;674;45.552;-122.600;2023-06-14T14:56:01;15.30;1.00
1361;DHT22;674;45.552;-122.600;2023-06-14T14:58:33;15.30;1.00
1361;DHT22;674;45.552;-122.600;2023-06-14T15:01:01;15.40;1.00
1361;DHT22;674;45.552;-122.600;2023-06-14T15:03:30;15.40;1.00
1361;DHT22;674;45.552;-122.600;2023-06-14T15:06:15;15.50;1.00
1361;DHT22;674;45.552;-122.600;2023-06-14T15:08:45;15.50;1.00
1361;DHT22;674;45.552;-122.600;2023-06-14T15:11:14;15.60;1.00
1361;DHT22;674;45.552;-122.600;2023-06-14T15:13:43;15.70;1.00
1361;DHT22;674;45.552;-122.600;2023-06-14T15:16:11;15.80;1.00
1361;DHT22;674;45.552;-122.600;2023-06-14T15:18:40;15.70;1.00
1361;DHT22;674;45.552;-122.600;2023-06-14T15:21:10;15.70;1.00
1361;DHT22;674;45.552;-122.600;2023-06-14T15:23:39;15.80;1.00
1361;DHT22;674;45.552;-122.600;2023-06-14T15:26:08;15.90;1.00
1361;DHT22;674;45.552;-122.600;2023-06-14T15:28:36;16.00;1.00
1361;DHT22;674;45.552;-122.600;2023-06-14T15:31:05;16.00;1.00
1361;DHT22;674;45.552;-122.600;2023-06-14T15:33:33;16.10;1.00
1361;DHT22;674;45.552;-122.600;2023-06-14T15:36:02;16.20;1.00
1361;DHT22;674;45.552;-122.600;2023-06-14T15:38:32;16.30;1.00
1361;DHT22;674;45.552;-122.600;2023-06-14T15:41:01;16.40;1.00
1361;DHT22;674;45.552;-122.600;2023-06-14T15:43:31;16.40;1.00
1361;DHT22;674;45.552;-122.600;2023-06-14T15:45:59;16.50;1.00
1361;DHT22;674;45.552;-122.600;2023-06-14T15:48:28;16.60;1.00
1361;DHT22;674;45.552;-122.600;2023-06-14T15:50:57;16.70;1.00
1361;DHT22;674;45.552;-122.600;2023-06-14T15:53:26;16.80;1.00
1361;DHT22;674;45.552;-122.600;2023-06-14T15:55:54;16.90;1.00
1361;DHT22;674;45.552;-122.600;2023-06-14T15:58:23;17.00;1.00
1361;DHT22;674;45.552;-122.600;2023-06-14T16:00:51;17.00;1.00
1361;DHT22;674;45.552;-122.600;2023-06-14T16:03:20;17.10;1.00
1361;DHT22;674;45.552;-122.600;2023-06-14T16:05:48;17.20;1.00
1361;DHT22;674;45.552;-122.600;2023-06-14T16:08:17;17.20;1.00
1361;DHT22;674;45.552;-122.600;2023-06-14T16:11:05;17.20;1.00
1361;DHT22;674;45.552;-122.600;2023-06-14T16:13:34;17.30;1.00